sensor_id;sensor_type;location;lat;lon;timestamp;temperature;humidity
6956;DHT22;50345;51.136;16.886;2023-02-22T00:02:11;7.30;99.90
6956;DHT22;50345;51.136;16.886;2023-02-22T00:04:49;7.20;99.90
6956;DHT22;50345;51.136;16.886;2023-02-22T00:09:40;7.20;99.90
6956;DHT22;50345;51.136;16.886;2023-02-22T00:12:06;7.10;99.90
6956;DHT22;50345;51.136;16.886;2023-02-22T00:14:33;7.00;99.90
6956;DHT22;50345;51.136;16.886;2023-02-22T00:16:59;6.90;99.90
6956;DHT22;50345;51.136;16.886;2023-02-22T00:19:24;6.90;99.90
6956;DHT22;50345;51.136;16.886;2023-02-22T00:21:52;6.70;99.90
6956;DHT22;50345;51.136;16.886;2023-02-22T00:24:17;6.70;99.90
6956;DHT22;50345;51.136;16.886;2023-02-22T00:26:51;6.60;99.90
6956;DHT22;50345;51.136;16.886;2023-02-22T00:29:16;6.60;99.90
6956;DHT22;50345;51.136;16.886;2023-02-22T00:31:42;6.50;99.90
6956;DHT22;50345;51.136;16.886;2023-02-22T00:34:08;6.50;99.90
6956;DHT22;50345;51.136;16.886;2023-02-22T00:36:33;6.40;99.90
6956;DHT22;50345;51.136;16.886;2023-02-22T00:38:59;6.40;99.90
6956;DHT22;50345;51.136;16.886;2023-02-22T00:41:24;6.40;99.90
6956;DHT22;50345;51.136;16.886;2023-02-22T00:43:50;6.40;99.90
6956;DHT22;50345;51.136;16.886;2023-02-22T00:46:15;6.40;99.90
6956;DHT22;50345;51.136;16.886;2023-02-22T00:48:41;6.30;99.90
6956;DHT22;50345;51.136;16.886;2023-02-22T00:51:07;6.30;99.90
6956;DHT22;50345;51.136;16.886;2023-02-22T00:53:32;6.30;99.90
6956;DHT22;50345;51.136;16.886;2023-02-22T00:55:58;6.30;99.90
6956;DHT22;50345;51.136;16.886;2023-02-22T00:58:23;6.20;99.90
6956;DHT22;50345;51.136;16.886;2023-02-22T01:00:49;6.20;99.90
6956;DHT22;50345;51.136;16.886;2023-02-22T01:03:17;6.20;99.90
6956;DHT22;50345;51.136;16.886;2023-02-22T01:05:43;6.20;99.90
6956;DHT22;50345;51.136;16.886;2023-02-22T01:08:11;6.20;99.90
6956;DHT22;50345;51.136;16.886;2023-02-22T01:10:38;6.20;99.90
6956;DHT22;50345;51.136;16.886;2023-02-22T01:13:05;6.20;99.90
6956;DHT22;50345;51.136;16.886;2023-02-22T01:15:33;6.20;99.90
6956;DHT22;50345;51.136;16.886;2023-02-22T01:17:59;6.10;99.90
6956;DHT22;50345;51.136;16.886;2023-02-22T01:20:26;6.00;99.90
6956;DHT22;50345;51.136;16.886;2023-02-22T01:22:53;6.00;99.90
6956;DHT22;50345;51.136;16.886;2023-02-22T01:25:22;6.00;99.90
6956;DHT22;50345;51.136;16.886;2023-02-22T01:27:48;5.90;99.90
6956;DHT22;50345;51.136;16.886;2023-02-22T01:30:19;5.90;99.90
6956;DHT22;50345;51.136;16.886;2023-02-22T01:32:44;5.90;99.90
6956;DHT22;50345;51.136;16.886;2023-02-22T01:35:14;5.90;99.90
6956;DHT22;50345;51.136;16.886;2023-02-22T01:37:40;5.80;99.90
6956;DHT22;50345;51.136;16.886;2023-02-22T01:40:09;5.80;99.90
6956;DHT22;50345;51.136;16.886;2023-02-22T01:42:35;5.80;99.90
6956;DHT22;50345;51.136;16.886;2023-02-22T01:50:34;5.60;99.90
6956;DHT22;50345;51.136;16.886;2023-02-22T01:53:02;5.60;99.90
6956;DHT22;50345;51.136;16.886;2023-02-22T01:55:30;5.60;99.90
6956;DHT22;50345;51.136;16.886;2023-02-22T01:57:55;5.60;99.90
6956;DHT22;50345;51.136;16.886;2023-02-22T02:00:21;5.60;99.90
6956;DHT22;50345;51.136;16.886;2023-02-22T02:02:53;5.60;99.90
6956;DHT22;50345;51.136;16.886;2023-02-22T02:05:24;5.60;99.90
6956;DHT22;50345;51.136;16.886;2023-02-22T02:07:52;5.50;99.90
6956;DHT22;50345;51.136;16.886;2023-02-22T02:10:18;5.50;99.90
6956;DHT22;50345;51.136;16.886;2023-02-22T02:12:46;5.50;99.90
6956;DHT22;50345;51.136;16.886;2023-02-22T02:17:49;5.40;99.90
6956;DHT22;50345;51.136;16.886;2023-02-22T02:20:26;5.40;99.90
6956;DHT22;50345;51.136;16.886;2023-02-22T02:29:29;5.50;99.90
6956;DHT22;50345;51.136;16.886;2023-02-22T02:37:11;5.70;99.90
6956;DHT22;50345;51.136;16.886;2023-02-22T02:39:49;5.80;99.90
6956;DHT22;50345;51.136;16.886;2023-02-22T02:42:22;5.80;99.90
6956;DHT22;50345;51.136;16.886;2023-02-22T02:45:00;5.80;99.90
6956;DHT22;50345;51.136;16.886;2023-02-22T02:47:33;5.90;99.90
6956;DHT22;50345;51.136;16.886;2023-02-22T02:50:14;6.00;99.90
6956;DHT22;50345;51.136;16.886;2023-02-22T02:52:42;6.00;99.90
6956;DHT22;50345;51.136;16.886;2023-02-22T02:55:09;6.10;99.90
6956;DHT22;50345;51.136;16.886;2023-02-22T02:57:36;6.10;99.90
6956;DHT22;50345;51.136;16.886;2023-02-22T03:00:04;6.20;99.90
6956;DHT22;50345;51.136;16.886;2023-02-22T03:02:57;6.20;99.90
6956;DHT22;50345;51.136;16.886;2023-02-22T03:06:08;6.20;99.90
6956;DHT22;50345;51.136;16.886;2023-02-22T03:09:37;6.20;99.90
6956;DHT22;50345;51.136;16.886;2023-02-22T03:11:50;6.30;99.90
6956;DHT22;50345;51.136;16.886;2023-02-22T03:14:26;6.30;99.90
6956;DHT22;50345;51.136;16.886;2023-02-22T03:17:04;6.20;99.90
6956;DHT22;50345;51.136;16.886;2023-02-22T03:19:42;6.30;99.90
6956;DHT22;50345;51.136;16.886;2023-02-22T03:22:24;6.40;99.90
6956;DHT22;50345;51.136;16.886;2023-02-22T03:25:14;6.30;99.90
6956;DHT22;50345;51.136;16.886;2023-02-22T03:27:50;6.30;99.90
6956;DHT22;50345;51.136;16.886;2023-02-22T03:30:24;6.30;99.90
6956;DHT22;50345;51.136;16.886;2023-02-22T03:32:56;6.40;99.90
6956;DHT22;50345;51.136;16.886;2023-02-22T03:35:30;6.40;99.90
6956;DHT22;50345;51.136;16.886;2023-02-22T03:38:01;6.50;99.90
6956;DHT22;50345;51.136;16.886;2023-02-22T03:40:32;6.50;99.90
6956;DHT22;50345;51.136;16.886;2023-02-22T03:43:14;6.50;99.90
6956;DHT22;50345;51.136;16.886;2023-02-22T03:45:43;6.50;99.90
6956;DHT22;50345;51.136;16.886;2023-02-22T03:50:53;6.50;99.90
6956;DHT22;50345;51.136;16.886;2023-02-22T03:53:19;6.60;99.90
6956;DHT22;50345;51.136;16.886;2023-02-22T03:55:48;6.60;99.90
6956;DHT22;50345;51.136;16.886;2023-02-22T03:58:20;6.50;99.90
6956;DHT22;50345;51.136;16.886;2023-02-22T04:00:47;6.60;99.90
6956;DHT22;50345;51.136;16.886;2023-02-22T04:03:18;6.60;99.90
6956;DHT22;50345;51.136;16.886;2023-02-22T04:09:06;6.60;99.90
6956;DHT22;50345;51.136;16.886;2023-02-22T04:11:33;6.60;99.90
6956;DHT22;50345;51.136;16.886;2023-02-22T04:13:58;6.60;99.90
6956;DHT22;50345;51.136;16.886;2023-02-22T04:16:25;6.70;99.90
6956;DHT22;50345;51.136;16.886;2023-02-22T04:18:50;6.70;99.90
6956;DHT22;50345;51.136;16.886;2023-02-22T04:21:16;6.70;99.90
6956;DHT22;50345;51.136;16.886;2023-02-22T04:23:42;6.70;99.90
6956;DHT22;50345;51.136;16.886;2023-02-22T04:26:07;6.70;99.90
6956;DHT22;50345;51.136;16.886;2023-02-22T04:28:33;6.70;99.90
6956;DHT22;50345;51.136;16.886;2023-02-22T04:30:58;6.70;99.90
6956;DHT22;50345;51.136;16.886;2023-02-22T04:33:24;6.70;99.90
6956;DHT22;50345;51.136;16.886;2023-02-22T04:35:50;6.70;99.90
6956;DHT22;50345;51.136;16.886;2023-02-22T04:38:16;6.70;99.90
6956;DHT22;50345;51.136;16.886;2023-02-22T04:40:41;6.70;99.90
6956;DHT22;50345;51.136;16.886;2023-02-22T04:43:07;6.70;99.90
6956;DHT22;50345;51.136;16.886;2023-02-22T04:45:32;6.70;99.90
6956;DHT22;50345;51.136;16.886;2023-02-22T04:47:58;6.70;99.90
6956;DHT22;50345;51.136;16.886;2023-02-22T04:50:24;6.70;99.90
6956;DHT22;50345;51.136;16.886;2023-02-22T04:52:49;6.70;99.90
6956;DHT22;50345;51.136;16.886;2023-02-22T04:55:15;6.70;99.90
6956;DHT22;50345;51.136;16.886;2023-02-22T04:57:41;6.70;99.90
6956;DHT22;50345;51.136;16.886;2023-02-22T05:00:07;6.70;99.90
6956;DHT22;50345;51.136;16.886;2023-02-22T05:02:36;6.70;99.90
6956;DHT22;50345;51.136;16.886;2023-02-22T05:05:03;6.70;99.90
6956;DHT22;50345;51.136;16.886;2023-02-22T05:07:29;6.70;99.90
6956;DHT22;50345;51.136;16.886;2023-02-22T05:09:54;6.70;99.90
6956;DHT22;50345;51.136;16.886;2023-02-22T05:12:20;6.70;99.90
6956;DHT22;50345;51.136;16.886;2023-02-22T05:14:46;6.70;99.90
6956;DHT22;50345;51.136;16.886;2023-02-22T05:17:11;6.70;99.90
6956;DHT22;50345;51.136;16.886;2023-02-22T05:19:37;6.80;99.90
6956;DHT22;50345;51.136;16.886;2023-02-22T05:22:03;6.80;99.90
6956;DHT22;50345;51.136;16.886;2023-02-22T05:24:30;6.90;99.90
6956;DHT22;50345;51.136;16.886;2023-02-22T05:26:56;6.90;99.90
6956;DHT22;50345;51.136;16.886;2023-02-22T05:29:22;6.90;99.90
6956;DHT22;50345;51.136;16.886;2023-02-22T05:31:47;6.90;99.90
6956;DHT22;50345;51.136;16.886;2023-02-22T05:34:13;6.80;99.90
6956;DHT22;50345;51.136;16.886;2023-02-22T05:36:39;6.90;99.90
6956;DHT22;50345;51.136;16.886;2023-02-22T05:39:05;6.90;99.90
6956;DHT22;50345;51.136;16.886;2023-02-22T05:41:30;6.90;99.90
6956;DHT22;50345;51.136;16.886;2023-02-22T05:43:56;6.90;99.90
6956;DHT22;50345;51.136;16.886;2023-02-22T05:46:22;7.00;99.90
6956;DHT22;50345;51.136;16.886;2023-02-22T05:48:47;7.00;99.90
6956;DHT22;50345;51.136;16.886;2023-02-22T05:51:13;7.00;99.90
6956;DHT22;50345;51.136;16.886;2023-02-22T05:53:38;7.00;99.90
6956;DHT22;50345;51.136;16.886;2023-02-22T05:56:04;7.00;99.90
6956;DHT22;50345;51.136;16.886;2023-02-22T05:58:30;7.10;99.90
6956;DHT22;50345;51.136;16.886;2023-02-22T06:00:55;7.10;99.90
6956;DHT22;50345;51.136;16.886;2023-02-22T06:03:21;7.10;99.90
6956;DHT22;50345;51.136;16.886;2023-02-22T06:05:46;7.10;99.90
6956;DHT22;50345;51.136;16.886;2023-02-22T06:08:12;7.10;99.90
6956;DHT22;50345;51.136;16.886;2023-02-22T06:10:37;7.10;99.90
6956;DHT22;50345;51.136;16.886;2023-02-22T06:13:04;7.10;99.90
6956;DHT22;50345;51.136;16.886;2023-02-22T06:15:29;7.10;99.90
6956;DHT22;50345;51.136;16.886;2023-02-22T06:17:56;7.10;99.90
6956;DHT22;50345;51.136;16.886;2023-02-22T06:20:24;7.10;99.90
6956;DHT22;50345;51.136;16.886;2023-02-22T06:22:52;7.10;99.90
6956;DHT22;50345;51.136;16.886;2023-02-22T06:25:20;7.10;99.90
6956;DHT22;50345;51.136;16.886;2023-02-22T06:27:46;7.10;99.90
6956;DHT22;50345;51.136;16.886;2023-02-22T06:30:13;7.10;99.90
6956;DHT22;50345;51.136;16.886;2023-02-22T06:32:39;7.10;99.90
6956;DHT22;50345;51.136;16.886;2023-02-22T06:35:05;7.10;99.90
6956;DHT22;50345;51.136;16.886;2023-02-22T06:37:31;7.10;99.90
6956;DHT22;50345;51.136;16.886;2023-02-22T06:39:57;7.20;99.90
6956;DHT22;50345;51.136;16.886;2023-02-22T06:42:22;7.30;99.90
6956;DHT22;50345;51.136;16.886;2023-02-22T06:44:48;7.30;99.90
6956;DHT22;50345;51.136;16.886;2023-02-22T06:47:14;7.30;99.90
6956;DHT22;50345;51.136;16.886;2023-02-22T06:49:39;7.40;99.90
6956;DHT22;50345;51.136;16.886;2023-02-22T06:52:06;7.40;99.90
6956;DHT22;50345;51.136;16.886;2023-02-22T06:54:32;7.50;99.90
6956;DHT22;50345;51.136;16.886;2023-02-22T06:56:57;7.50;99.90
6956;DHT22;50345;51.136;16.886;2023-02-22T06:59:23;7.60;99.90
6956;DHT22;50345;51.136;16.886;2023-02-22T07:01:49;7.60;99.90
6956;DHT22;50345;51.136;16.886;2023-02-22T07:04:15;7.60;99.90
6956;DHT22;50345;51.136;16.886;2023-02-22T07:06:48;7.60;99.90
6956;DHT22;50345;51.136;16.886;2023-02-22T07:09:15;7.70;99.90
6956;DHT22;50345;51.136;16.886;2023-02-22T07:11:41;7.70;99.90
6956;DHT22;50345;51.136;16.886;2023-02-22T07:14:07;7.80;99.90
6956;DHT22;50345;51.136;16.886;2023-02-22T07:16:32;7.80;99.90
6956;DHT22;50345;51.136;16.886;2023-02-22T07:18:58;7.90;99.90
6956;DHT22;50345;51.136;16.886;2023-02-22T07:21:27;8.00;99.90
6956;DHT22;50345;51.136;16.886;2023-02-22T07:23:54;8.00;99.90
6956;DHT22;50345;51.136;16.886;2023-02-22T07:26:21;8.00;99.90
6956;DHT22;50345;51.136;16.886;2023-02-22T07:28:47;8.10;99.90
6956;DHT22;50345;51.136;16.886;2023-02-22T07:31:13;8.20;99.90
6956;DHT22;50345;51.136;16.886;2023-02-22T07:33:39;8.30;99.90
6956;DHT22;50345;51.136;16.886;2023-02-22T07:36:04;8.40;99.90
6956;DHT22;50345;51.136;16.886;2023-02-22T07:38:30;8.50;99.90
6956;DHT22;50345;51.136;16.886;2023-02-22T07:40:56;8.50;99.90
6956;DHT22;50345;51.136;16.886;2023-02-22T07:43:31;8.60;99.90
6956;DHT22;50345;51.136;16.886;2023-02-22T07:45:58;8.60;99.90
6956;DHT22;50345;51.136;16.886;2023-02-22T07:48:26;8.70;99.90
6956;DHT22;50345;51.136;16.886;2023-02-22T07:50:53;8.70;99.90
6956;DHT22;50345;51.136;16.886;2023-02-22T07:53:24;8.80;99.90
6956;DHT22;50345;51.136;16.886;2023-02-22T07:55:50;8.80;99.90
6956;DHT22;50345;51.136;16.886;2023-02-22T07:58:19;8.90;99.90
6956;DHT22;50345;51.136;16.886;2023-02-22T08:00:45;9.00;99.90
6956;DHT22;50345;51.136;16.886;2023-02-22T08:03:13;9.00;99.90
6956;DHT22;50345;51.136;16.886;2023-02-22T08:05:44;9.10;99.90
6956;DHT22;50345;51.136;16.886;2023-02-22T08:08:10;9.20;99.90
6956;DHT22;50345;51.136;16.886;2023-02-22T08:10:36;9.30;99.90
6956;DHT22;50345;51.136;16.886;2023-02-22T08:13:03;9.30;99.90
6956;DHT22;50345;51.136;16.886;2023-02-22T08:15:31;9.40;99.90
6956;DHT22;50345;51.136;16.886;2023-02-22T08:17:59;9.60;99.90
6956;DHT22;50345;51.136;16.886;2023-02-22T08:20:26;9.60;99.90
6956;DHT22;50345;51.136;16.886;2023-02-22T08:22:53;9.70;99.90
6956;DHT22;50345;51.136;16.886;2023-02-22T08:25:20;9.80;99.90
6956;DHT22;50345;51.136;16.886;2023-02-22T08:27:46;9.80;99.90
6956;DHT22;50345;51.136;16.886;2023-02-22T08:30:18;9.90;99.90
6956;DHT22;50345;51.136;16.886;2023-02-22T08:32:45;9.90;99.90
6956;DHT22;50345;51.136;16.886;2023-02-22T08:35:13;10.00;99.90
6956;DHT22;50345;51.136;16.886;2023-02-22T08:37:46;10.00;99.90
6956;DHT22;50345;51.136;16.886;2023-02-22T08:40:13;10.00;99.90
6956;DHT22;50345;51.136;16.886;2023-02-22T08:42:41;10.10;99.90
6956;DHT22;50345;51.136;16.886;2023-02-22T08:45:08;10.10;99.90
6956;DHT22;50345;51.136;16.886;2023-02-22T08:47:34;10.20;99.90
6956;DHT22;50345;51.136;16.886;2023-02-22T08:49:59;10.30;99.90
6956;DHT22;50345;51.136;16.886;2023-02-22T08:52:25;10.30;99.90
6956;DHT22;50345;51.136;16.886;2023-02-22T08:54:51;10.40;99.90
6956;DHT22;50345;51.136;16.886;2023-02-22T08:57:16;10.60;99.90
6956;DHT22;50345;51.136;16.886;2023-02-22T08:59:42;10.70;99.90
6956;DHT22;50345;51.136;16.886;2023-02-22T09:02:15;11.00;99.90
6956;DHT22;50345;51.136;16.886;2023-02-22T09:04:41;11.20;99.90
6956;DHT22;50345;51.136;16.886;2023-02-22T09:09:33;11.50;99.90
6956;DHT22;50345;51.136;16.886;2023-02-22T09:12:00;11.80;99.90
6956;DHT22;50345;51.136;16.886;2023-02-22T09:14:25;11.90;99.90
6956;DHT22;50345;51.136;16.886;2023-02-22T09:16:51;12.10;99.90
6956;DHT22;50345;51.136;16.886;2023-02-22T09:19:16;12.00;99.90
6956;DHT22;50345;51.136;16.886;2023-02-22T09:21:42;11.90;99.90
6956;DHT22;50345;51.136;16.886;2023-02-22T09:24:07;11.90;99.90
6956;DHT22;50345;51.136;16.886;2023-02-22T09:26:34;11.90;99.90
6956;DHT22;50345;51.136;16.886;2023-02-22T09:29:07;11.90;99.90
6956;DHT22;50345;51.136;16.886;2023-02-22T09:31:39;12.00;99.90
6956;DHT22;50345;51.136;16.886;2023-02-22T09:34:06;12.00;99.90
6956;DHT22;50345;51.136;16.886;2023-02-22T09:36:45;11.90;99.90
6956;DHT22;50345;51.136;16.886;2023-02-22T09:39:12;11.80;99.90
6956;DHT22;50345;51.136;16.886;2023-02-22T09:44:45;11.60;99.90
6956;DHT22;50345;51.136;16.886;2023-02-22T09:47:15;11.40;99.90
6956;DHT22;50345;51.136;16.886;2023-02-22T09:50:06;11.30;99.90
6956;DHT22;50345;51.136;16.886;2023-02-22T09:55:21;11.00;99.90
6956;DHT22;50345;51.136;16.886;2023-02-22T09:57:55;11.00;99.90
6956;DHT22;50345;51.136;16.886;2023-02-22T10:00:26;11.00;99.90
6956;DHT22;50345;51.136;16.886;2023-02-22T10:02:59;10.90;99.90
6956;DHT22;50345;51.136;16.886;2023-02-22T10:05:34;10.90;99.90
6956;DHT22;50345;51.136;16.886;2023-02-22T10:08:04;11.00;99.90
6956;DHT22;50345;51.136;16.886;2023-02-22T10:10:53;11.10;99.90
6956;DHT22;50345;51.136;16.886;2023-02-22T10:16:30;11.30;99.90
6956;DHT22;50345;51.136;16.886;2023-02-22T10:24:37;12.10;99.20
6956;DHT22;50345;51.136;16.886;2023-02-22T10:27:32;12.60;94.80
6956;DHT22;50345;51.136;16.886;2023-02-22T10:32:49;12.90;93.60
6956;DHT22;50345;51.136;16.886;2023-02-22T10:35:23;13.00;93.50
6956;DHT22;50345;51.136;16.886;2023-02-22T10:37:58;13.20;91.80
6956;DHT22;50345;51.136;16.886;2023-02-22T10:40:26;13.40;89.00
6956;DHT22;50345;51.136;16.886;2023-02-22T10:43:03;13.50;87.30
6956;DHT22;50345;51.136;16.886;2023-02-22T10:45:31;13.40;85.60
6956;DHT22;50345;51.136;16.886;2023-02-22T10:48:07;13.30;85.70
6956;DHT22;50345;51.136;16.886;2023-02-22T10:50:38;13.20;87.20
6956;DHT22;50345;51.136;16.886;2023-02-22T10:53:05;13.10;86.90
6956;DHT22;50345;51.136;16.886;2023-02-22T10:55:31;13.00;89.10
6956;DHT22;50345;51.136;16.886;2023-02-22T10:58:03;13.10;90.00
6956;DHT22;50345;51.136;16.886;2023-02-22T11:00:36;13.30;89.60
6956;DHT22;50345;51.136;16.886;2023-02-22T11:03:18;13.70;86.30
6956;DHT22;50345;51.136;16.886;2023-02-22T11:05:45;13.90;85.20
6956;DHT22;50345;51.136;16.886;2023-02-22T11:10:49;14.10;82.20
6956;DHT22;50345;51.136;16.886;2023-02-22T11:13:17;14.00;79.50
6956;DHT22;50345;51.136;16.886;2023-02-22T11:15:43;13.90;79.80
6956;DHT22;50345;51.136;16.886;2023-02-22T11:18:35;13.80;79.40
6956;DHT22;50345;51.136;16.886;2023-02-22T11:21:04;13.70;78.60
6956;DHT22;50345;51.136;16.886;2023-02-22T11:23:33;13.60;78.90
6956;DHT22;50345;51.136;16.886;2023-02-22T11:26:03;13.60;79.20
6956;DHT22;50345;51.136;16.886;2023-02-22T11:28:30;13.40;79.80
6956;DHT22;50345;51.136;16.886;2023-02-22T11:31:08;13.20;79.60
6956;DHT22;50345;51.136;16.886;2023-02-22T11:33:34;13.10;80.10
6956;DHT22;50345;51.136;16.886;2023-02-22T11:36:03;12.90;80.90
6956;DHT22;50345;51.136;16.886;2023-02-22T11:38:38;12.80;82.50
6956;DHT22;50345;51.136;16.886;2023-02-22T11:41:11;12.80;84.80
6956;DHT22;50345;51.136;16.886;2023-02-22T11:44:11;12.70;84.70
6956;DHT22;50345;51.136;16.886;2023-02-22T11:46:39;12.70;85.30
6956;DHT22;50345;51.136;16.886;2023-02-22T11:49:10;12.70;85.90
6956;DHT22;50345;51.136;16.886;2023-02-22T12:00:06;13.10;86.10
6956;DHT22;50345;51.136;16.886;2023-02-22T12:05:35;13.50;83.90
6956;DHT22;50345;51.136;16.886;2023-02-22T12:10:55;16.10;70.80
6956;DHT22;50345;51.136;16.886;2023-02-22T12:13:33;16.50;65.90
6956;DHT22;50345;51.136;16.886;2023-02-22T12:21:25;16.80;62.60
6956;DHT22;50345;51.136;16.886;2023-02-22T12:24:19;17.00;60.70
6956;DHT22;50345;51.136;16.886;2023-02-22T12:27:21;16.90;60.20
6956;DHT22;50345;51.136;16.886;2023-02-22T12:32:39;16.10;60.70
6956;DHT22;50345;51.136;16.886;2023-02-22T12:35:18;15.80;61.50
6956;DHT22;50345;51.136;16.886;2023-02-22T12:37:59;15.40;62.40
6956;DHT22;50345;51.136;16.886;2023-02-22T12:40:34;15.10;63.90
6956;DHT22;50345;51.136;16.886;2023-02-22T12:43:09;14.90;64.60
6956;DHT22;50345;51.136;16.886;2023-02-22T12:45:46;14.90;66.00
6956;DHT22;50345;51.136;16.886;2023-02-22T12:50:53;15.10;66.00
6956;DHT22;50345;51.136;16.886;2023-02-22T12:53:26;15.30;65.30
6956;DHT22;50345;51.136;16.886;2023-02-22T12:56:19;15.50;64.70
6956;DHT22;50345;51.136;16.886;2023-02-22T13:01:38;15.60;61.30
6956;DHT22;50345;51.136;16.886;2023-02-22T13:04:05;15.80;61.30
6956;DHT22;50345;51.136;16.886;2023-02-22T13:14:39;15.70;58.90
6956;DHT22;50345;51.136;16.886;2023-02-22T13:22:22;15.70;58.40
6956;DHT22;50345;51.136;16.886;2023-02-22T13:27:39;15.60;59.20
6956;DHT22;50345;51.136;16.886;2023-02-22T13:41:27;15.10;61.40
6956;DHT22;50345;51.136;16.886;2023-02-22T13:47:10;14.80;62.40
6956;DHT22;50345;51.136;16.886;2023-02-22T13:49:58;14.70;62.50
6956;DHT22;50345;51.136;16.886;2023-02-22T13:52:30;14.80;62.70
6956;DHT22;50345;51.136;16.886;2023-02-22T13:55:03;14.90;63.00
6956;DHT22;50345;51.136;16.886;2023-02-22T13:57:41;14.80;61.60
6956;DHT22;50345;51.136;16.886;2023-02-22T14:03:04;14.80;61.90
6956;DHT22;50345;51.136;16.886;2023-02-22T14:10:51;14.70;62.80
6956;DHT22;50345;51.136;16.886;2023-02-22T14:13:19;14.70;62.00
6956;DHT22;50345;51.136;16.886;2023-02-22T14:18:42;14.70;61.70
6956;DHT22;50345;51.136;16.886;2023-02-22T14:21:11;14.80;60.90
6956;DHT22;50345;51.136;16.886;2023-02-22T14:23:41;14.80;60.70
6956;DHT22;50345;51.136;16.886;2023-02-22T14:26:26;14.90;60.50
6956;DHT22;50345;51.136;16.886;2023-02-22T14:36:59;14.80;59.60
6956;DHT22;50345;51.136;16.886;2023-02-22T14:45:00;14.60;61.50
6956;DHT22;50345;51.136;16.886;2023-02-22T14:51:07;14.60;60.50
6956;DHT22;50345;51.136;16.886;2023-02-22T14:53:48;14.80;60.90
6956;DHT22;50345;51.136;16.886;2023-02-22T14:56:30;16.60;56.50
6956;DHT22;50345;51.136;16.886;2023-02-22T15:01:29;17.70;52.30
6956;DHT22;50345;51.136;16.886;2023-02-22T15:04:19;17.70;53.10
6956;DHT22;50345;51.136;16.886;2023-02-22T15:06:44;17.40;53.00
6956;DHT22;50345;51.136;16.886;2023-02-22T15:09:20;16.90;52.90
6956;DHT22;50345;51.136;16.886;2023-02-22T15:11:56;16.10;52.90
6956;DHT22;50345;51.136;16.886;2023-02-22T15:14:36;16.00;54.00
6956;DHT22;50345;51.136;16.886;2023-02-22T15:17:06;16.30;54.60
6956;DHT22;50345;51.136;16.886;2023-02-22T15:19:37;16.70;53.80
6956;DHT22;50345;51.136;16.886;2023-02-22T15:22:04;16.70;53.30
6956;DHT22;50345;51.136;16.886;2023-02-22T15:24:35;16.40;53.40
6956;DHT22;50345;51.136;16.886;2023-02-22T15:27:13;15.30;54.40
6956;DHT22;50345;51.136;16.886;2023-02-22T15:29:42;15.20;54.90
6956;DHT22;50345;51.136;16.886;2023-02-22T15:35:27;14.10;56.70
6956;DHT22;50345;51.136;16.886;2023-02-22T15:40:35;13.10;58.80
6956;DHT22;50345;51.136;16.886;2023-02-22T15:43:04;12.80;60.00
6956;DHT22;50345;51.136;16.886;2023-02-22T15:45:33;12.50;61.20
6956;DHT22;50345;51.136;16.886;2023-02-22T15:48:00;12.30;62.90
6956;DHT22;50345;51.136;16.886;2023-02-22T15:50:33;12.20;64.30
6956;DHT22;50345;51.136;16.886;2023-02-22T15:53:22;11.90;64.70
6956;DHT22;50345;51.136;16.886;2023-02-22T15:55:55;11.70;65.20
6956;DHT22;50345;51.136;16.886;2023-02-22T15:58:23;11.50;66.90
6956;DHT22;50345;51.136;16.886;2023-02-22T16:01:00;11.30;67.70
6956;DHT22;50345;51.136;16.886;2023-02-22T16:03:29;11.30;68.60
6956;DHT22;50345;51.136;16.886;2023-02-22T16:06:00;11.00;69.40
6956;DHT22;50345;51.136;16.886;2023-02-22T16:08:39;10.80;71.40
6956;DHT22;50345;51.136;16.886;2023-02-22T16:11:09;10.80;72.10
6956;DHT22;50345;51.136;16.886;2023-02-22T16:13:41;10.70;73.60
6956;DHT22;50345;51.136;16.886;2023-02-22T16:18:50;10.50;76.60
6956;DHT22;50345;51.136;16.886;2023-02-22T16:21:21;10.50;78.70
6956;DHT22;50345;51.136;16.886;2023-02-22T16:23:49;10.40;80.30
6956;DHT22;50345;51.136;16.886;2023-02-22T16:26:29;10.30;81.70
6956;DHT22;50345;51.136;16.886;2023-02-22T16:29:00;10.30;83.10
6956;DHT22;50345;51.136;16.886;2023-02-22T16:31:29;10.30;84.40
6956;DHT22;50345;51.136;16.886;2023-02-22T16:34:02;10.30;85.80
6956;DHT22;50345;51.136;16.886;2023-02-22T16:36:42;10.20;86.20
6956;DHT22;50345;51.136;16.886;2023-02-22T16:39:24;10.20;87.00
6956;DHT22;50345;51.136;16.886;2023-02-22T16:42:02;10.20;88.40
6956;DHT22;50345;51.136;16.886;2023-02-22T16:44:28;10.20;89.80
6956;DHT22;50345;51.136;16.886;2023-02-22T16:46:56;10.20;90.00
6956;DHT22;50345;51.136;16.886;2023-02-22T16:49:22;10.20;89.90
6956;DHT22;50345;51.136;16.886;2023-02-22T16:51:51;10.20;90.20
6956;DHT22;50345;51.136;16.886;2023-02-22T16:54:30;10.10;90.20
6956;DHT22;50345;51.136;16.886;2023-02-22T16:57:00;10.10;90.40
6956;DHT22;50345;51.136;16.886;2023-02-22T16:59:30;10.10;90.60
6956;DHT22;50345;51.136;16.886;2023-02-22T17:01:56;10.10;90.90
6956;DHT22;50345;51.136;16.886;2023-02-22T17:04:24;10.10;91.20
6956;DHT22;50345;51.136;16.886;2023-02-22T17:06:51;10.00;91.50
6956;DHT22;50345;51.136;16.886;2023-02-22T17:09:17;10.00;91.80
6956;DHT22;50345;51.136;16.886;2023-02-22T17:11:45;10.00;92.20
6956;DHT22;50345;51.136;16.886;2023-02-22T17:14:17;9.90;93.50
6956;DHT22;50345;51.136;16.886;2023-02-22T17:16:43;9.90;93.80
6956;DHT22;50345;51.136;16.886;2023-02-22T17:19:16;9.80;94.80
6956;DHT22;50345;51.136;16.886;2023-02-22T17:21:42;9.80;95.20
6956;DHT22;50345;51.136;16.886;2023-02-22T17:24:12;9.80;96.00
6956;DHT22;50345;51.136;16.886;2023-02-22T17:26:39;9.70;97.00
6956;DHT22;50345;51.136;16.886;2023-02-22T17:29:04;9.70;97.20
6956;DHT22;50345;51.136;16.886;2023-02-22T17:31:30;9.70;97.50
6956;DHT22;50345;51.136;16.886;2023-02-22T17:34:01;9.60;97.80
6956;DHT22;50345;51.136;16.886;2023-02-22T17:36:28;9.50;98.00
6956;DHT22;50345;51.136;16.886;2023-02-22T17:38:55;9.50;98.20
6956;DHT22;50345;51.136;16.886;2023-02-22T17:41:20;9.40;98.20
6956;DHT22;50345;51.136;16.886;2023-02-22T17:43:46;9.40;98.60
6956;DHT22;50345;51.136;16.886;2023-02-22T17:46:11;9.30;99.10
6956;DHT22;50345;51.136;16.886;2023-02-22T17:48:37;9.30;98.80
6956;DHT22;50345;51.136;16.886;2023-02-22T17:51:05;9.30;98.90
6956;DHT22;50345;51.136;16.886;2023-02-22T17:53:32;9.30;98.10
6956;DHT22;50345;51.136;16.886;2023-02-22T17:55:58;9.30;98.20
6956;DHT22;50345;51.136;16.886;2023-02-22T17:58:23;9.20;98.40
6956;DHT22;50345;51.136;16.886;2023-02-22T18:00:53;9.20;98.40
6956;DHT22;50345;51.136;16.886;2023-02-22T18:03:24;9.20;98.20
6956;DHT22;50345;51.136;16.886;2023-02-22T18:05:52;9.20;97.70
6956;DHT22;50345;51.136;16.886;2023-02-22T18:08:19;9.20;97.40
6956;DHT22;50345;51.136;16.886;2023-02-22T18:10:46;9.20;97.50
6956;DHT22;50345;51.136;16.886;2023-02-22T18:13:13;9.10;96.80
6956;DHT22;50345;51.136;16.886;2023-02-22T18:15:41;9.10;96.60
6956;DHT22;50345;51.136;16.886;2023-02-22T18:18:06;9.00;96.60
6956;DHT22;50345;51.136;16.886;2023-02-22T18:20:32;9.00;96.40
6956;DHT22;50345;51.136;16.886;2023-02-22T18:23:07;9.00;96.40
6956;DHT22;50345;51.136;16.886;2023-02-22T18:25:35;9.00;96.80